createdAt,value
2023-08-02T00:01:37.505Z,18.20
2023-08-02T00:04:11.009Z,18.17
2023-08-02T00:06:38.500Z,18.17
2023-08-02T00:09:05.265Z,18.19
2023-08-02T00:11:31.952Z,18.13
2023-08-02T00:13:58.632Z,18.19
2023-08-02T00:16:25.417Z,18.13
2023-08-02T00:18:52.139Z,18.16
2023-08-02T00:21:18.846Z,18.16
2023-08-02T00:23:45.521Z,18.16
2023-08-02T00:26:12.225Z,18.13
2023-08-02T00:28:38.903Z,18.14
2023-08-02T00:31:05.689Z,18.14
2023-08-02T00:33:32.398Z,18.16
2023-08-02T00:35:59.145Z,18.13
2023-08-02T00:38:25.882Z,18.12
2023-08-02T00:40:52.581Z,18.10
2023-08-02T00:43:19.257Z,18.12
2023-08-02T00:45:45.981Z,18.12
2023-08-02T00:48:12.762Z,18.10
2023-08-02T00:50:39.693Z,18.10
2023-08-02T00:53:06.378Z,18.10
2023-08-02T00:55:33.072Z,18.12
2023-08-02T00:57:59.764Z,18.13
2023-08-02T01:00:26.446Z,18.09
2023-08-02T01:02:53.161Z,18.09
2023-08-02T01:05:19.860Z,18.09
2023-08-02T01:07:46.548Z,18.09
2023-08-02T01:10:13.266Z,18.05
2023-08-02T01:12:39.983Z,18.06
2023-08-02T01:15:06.880Z,18.06
2023-08-02T01:17:33.599Z,18.09
2023-08-02T01:20:00.338Z,18.08
2023-08-02T01:22:27.027Z,18.05
2023-08-02T01:24:53.720Z,18.03
2023-08-02T01:27:20.407Z,18.03
2023-08-02T01:29:47.104Z,18.06
2023-08-02T01:32:13.777Z,18.05
2023-08-02T01:34:40.479Z,18.06
2023-08-02T01:37:07.198Z,18.05
2023-08-02T01:39:33.923Z,18.02
2023-08-02T01:42:00.669Z,18.02
2023-08-02T01:44:27.395Z,18.00
2023-08-02T01:46:54.086Z,18.02
2023-08-02T01:49:20.818Z,18.02
2023-08-02T01:51:47.502Z,18.02
2023-08-02T01:54:14.182Z,18.03
2023-08-02T01:56:41.399Z,18.02
2023-08-02T01:59:08.430Z,18.00
2023-08-02T02:01:35.207Z,18.02
2023-08-02T02:04:01.923Z,18.00
2023-08-02T02:06:28.617Z,18.00
2023-08-02T02:08:55.341Z,18.02
2023-08-02T02:11:22.097Z,17.99
2023-08-02T02:13:48.798Z,18.00
2023-08-02T02:16:15.560Z,18.00
2023-08-02T02:18:42.278Z,17.99
2023-08-02T02:21:09.020Z,17.98
2023-08-02T02:23:35.702Z,17.99
2023-08-02T02:26:02.450Z,18.00
2023-08-02T02:28:29.127Z,17.98
2023-08-02T02:30:56.027Z,17.98
2023-08-02T02:33:22.713Z,17.99
2023-08-02T02:35:49.424Z,17.98
2023-08-02T02:38:16.127Z,17.98
2023-08-02T02:40:42.845Z,17.96
2023-08-02T02:43:09.736Z,17.95
2023-08-02T02:45:36.519Z,17.95
2023-08-02T02:48:03.312Z,17.96
2023-08-02T02:50:30.115Z,17.98
2023-08-02T02:52:56.946Z,17.96
2023-08-02T02:55:23.665Z,17.93
2023-08-02T02:57:50.409Z,17.95
2023-08-02T03:00:17.101Z,17.95
2023-08-02T03:02:43.954Z,17.96
2023-08-02T03:05:10.929Z,17.95
2023-08-02T03:07:37.660Z,17.90
2023-08-02T03:10:04.397Z,17.92
2023-08-02T03:12:31.116Z,17.93
2023-08-02T03:14:57.837Z,17.93
2023-08-02T03:17:24.682Z,17.93
2023-08-02T03:19:51.412Z,17.92
2023-08-02T03:22:18.147Z,17.90
2023-08-02T03:24:44.852Z,17.93
2023-08-02T03:27:11.579Z,17.92
2023-08-02T03:29:38.300Z,17.92
2023-08-02T03:32:05.045Z,17.92
2023-08-02T03:34:31.733Z,17.90
2023-08-02T03:36:58.450Z,17.92
2023-08-02T03:39:25.122Z,17.89
2023-08-02T03:41:51.804Z,17.90
2023-08-02T03:44:18.517Z,17.89
2023-08-02T03:46:45.580Z,17.90
2023-08-02T03:49:12.734Z,17.90
2023-08-02T03:51:39.419Z,17.85
2023-08-02T03:54:06.130Z,17.89
2023-08-02T03:56:33.086Z,17.88
2023-08-02T03:58:59.834Z,17.88
2023-08-02T04:01:26.610Z,17.88
2023-08-02T04:03:53.397Z,17.88
2023-08-02T04:06:20.184Z,17.86
2023-08-02T04:08:46.955Z,17.85
2023-08-02T04:11:13.629Z,17.88
2023-08-02T04:13:40.358Z,17.85
2023-08-02T04:16:07.074Z,17.83
2023-08-02T04:18:33.796Z,17.86
2023-08-02T04:21:00.608Z,17.85
2023-08-02T04:23:27.707Z,17.86
2023-08-02T04:25:54.420Z,17.85
2023-08-02T04:28:21.146Z,17.88
2023-08-02T04:30:47.835Z,17.85
2023-08-02T04:33:14.586Z,17.85
2023-08-02T04:35:42.404Z,17.85
2023-08-02T04:38:09.335Z,17.82
2023-08-02T04:40:36.052Z,17.83
2023-08-02T04:43:02.768Z,17.83
2023-08-02T04:45:29.462Z,17.83
2023-08-02T04:47:56.233Z,17.83
2023-08-02T04:50:22.974Z,17.83
2023-08-02T04:52:49.710Z,17.81
2023-08-02T04:55:16.435Z,17.82
2023-08-02T04:57:43.369Z,17.83
2023-08-02T05:00:10.116Z,17.82
2023-08-02T05:02:36.923Z,17.81
2023-08-02T05:05:03.619Z,17.82
2023-08-02T05:07:30.566Z,17.82
2023-08-02T05:09:57.291Z,17.81
2023-08-02T05:12:23.993Z,17.79
2023-08-02T05:14:51.040Z,17.81
2023-08-02T05:17:17.760Z,17.81
2023-08-02T05:19:44.471Z,17.82
2023-08-02T05:22:11.189Z,17.79
2023-08-02T05:24:37.871Z,17.79
2023-08-02T05:27:04.545Z,17.79
2023-08-02T05:29:31.307Z,17.81
2023-08-02T05:31:58.065Z,17.79
2023-08-02T05:34:24.990Z,17.82
2023-08-02T05:36:51.731Z,17.82
2023-08-02T05:39:18.630Z,17.81
2023-08-02T05:41:45.321Z,17.79
2023-08-02T05:44:12.031Z,17.82
2023-08-02T05:46:38.927Z,17.79
2023-08-02T05:49:05.634Z,17.79
2023-08-02T05:51:32.356Z,17.81
2023-08-02T05:53:59.088Z,17.79
2023-08-02T05:56:25.784Z,17.79
2023-08-02T05:58:52.495Z,17.79
2023-08-02T06:01:19.241Z,17.78
2023-08-02T06:03:46.230Z,17.79
2023-08-02T06:06:12.993Z,17.81
2023-08-02T06:08:39.679Z,17.78
2023-08-02T06:11:07.231Z,17.81
2023-08-02T06:13:33.970Z,17.79
2023-08-02T06:16:00.695Z,17.79
2023-08-02T06:18:27.644Z,17.78
2023-08-02T06:20:54.365Z,17.78
2023-08-02T06:23:21.047Z,17.79
2023-08-02T06:25:47.775Z,17.79
2023-08-02T06:28:14.459Z,17.79
2023-08-02T06:30:41.216Z,17.79
2023-08-02T06:33:08.025Z,17.81
2023-08-02T06:35:34.988Z,17.77
2023-08-02T06:38:01.819Z,17.79
2023-08-02T06:40:28.540Z,17.79
2023-08-02T06:42:55.226Z,17.78
2023-08-02T06:45:21.964Z,17.78
2023-08-02T06:47:48.743Z,17.78
2023-08-02T06:50:15.481Z,17.79
2023-08-02T06:52:42.183Z,17.78
2023-08-02T06:55:08.910Z,17.79
2023-08-02T06:57:35.608Z,17.78
2023-08-02T07:00:02.299Z,17.79
2023-08-02T07:02:29.021Z,17.78
2023-08-02T07:04:55.803Z,17.79
2023-08-02T07:07:22.808Z,17.77
2023-08-02T07:09:49.495Z,17.77
2023-08-02T07:12:16.245Z,17.79
2023-08-02T07:14:42.998Z,17.79
2023-08-02T07:17:09.954Z,17.77
2023-08-02T07:19:36.669Z,17.79
2023-08-02T07:22:03.565Z,17.78
2023-08-02T07:24:30.289Z,17.75
2023-08-02T07:26:57.023Z,17.79
2023-08-02T07:29:23.764Z,17.77
2023-08-02T07:31:50.485Z,17.77
2023-08-02T07:34:17.222Z,17.79
2023-08-02T07:36:43.943Z,17.79
2023-08-02T07:39:11.291Z,17.79
2023-08-02T07:41:38.047Z,17.78
2023-08-02T07:44:04.766Z,17.81
2023-08-02T07:46:31.499Z,17.78
2023-08-02T07:48:58.249Z,17.78
2023-08-02T07:51:24.996Z,17.77
2023-08-02T07:53:51.699Z,17.79
2023-08-02T07:56:18.426Z,17.79
2023-08-02T07:58:45.101Z,17.77
2023-08-02T08:01:11.805Z,17.79
2023-08-02T08:03:38.861Z,17.78
2023-08-02T08:06:05.677Z,17.77
2023-08-02T08:08:32.413Z,17.81
2023-08-02T08:10:59.461Z,17.77
2023-08-02T08:13:26.157Z,17.79
2023-08-02T08:15:52.877Z,17.78
2023-08-02T08:18:19.611Z,17.77
2023-08-02T08:20:46.347Z,17.77
2023-08-02T08:23:13.051Z,17.77
2023-08-02T08:25:39.739Z,17.77
2023-08-02T08:28:06.428Z,17.78
2023-08-02T08:30:33.183Z,17.77
2023-08-02T08:32:59.965Z,17.77
2023-08-02T08:35:26.723Z,17.78
2023-08-02T08:37:53.439Z,17.77
2023-08-02T08:40:20.136Z,17.78
2023-08-02T08:42:46.864Z,17.78
2023-08-02T08:45:13.599Z,17.75
2023-08-02T08:47:40.412Z,17.77
2023-08-02T08:50:07.431Z,17.75
2023-08-02T08:52:34.143Z,17.75
2023-08-02T08:55:00.823Z,17.77
2023-08-02T08:57:27.528Z,17.78
2023-08-02T08:59:54.230Z,17.78
2023-08-02T09:02:20.929Z,17.77
2023-08-02T09:04:47.681Z,17.78
2023-08-02T09:07:14.648Z,17.81
2023-08-02T09:09:41.590Z,17.79
2023-08-02T09:12:08.322Z,17.78
2023-08-02T09:14:35.044Z,17.79
2023-08-02T09:17:01.997Z,17.79
2023-08-02T09:19:28.690Z,17.78
2023-08-02T09:21:55.924Z,17.79
2023-08-02T09:24:22.610Z,17.81
2023-08-02T09:26:49.328Z,17.78
2023-08-02T09:29:16.260Z,17.79
2023-08-02T09:31:43.194Z,17.81
2023-08-02T09:34:10.192Z,17.78
2023-08-02T09:36:36.926Z,17.77
2023-08-02T09:39:03.645Z,17.77
2023-08-02T09:43:59.986Z,17.79
2023-08-02T09:46:26.734Z,17.79
2023-08-02T09:48:53.500Z,17.79
2023-08-02T09:51:20.213Z,17.81
2023-08-02T09:53:46.945Z,17.81
2023-08-02T09:56:13.661Z,17.81
2023-08-02T09:58:40.407Z,17.78
2023-08-02T10:01:07.117Z,17.82
2023-08-02T10:03:33.925Z,17.86
2023-08-02T10:06:01.034Z,17.85
2023-08-02T10:08:27.833Z,17.85
2023-08-02T10:10:54.774Z,17.83
2023-08-02T10:13:21.494Z,17.83
2023-08-02T10:15:48.316Z,17.86
2023-08-02T10:18:15.048Z,17.83
2023-08-02T10:20:41.788Z,17.86
2023-08-02T10:23:08.464Z,17.88
2023-08-02T10:25:35.402Z,17.86
2023-08-02T10:28:02.184Z,17.86
2023-08-02T10:30:28.865Z,17.88
2023-08-02T10:32:55.635Z,17.89
2023-08-02T10:35:22.522Z,17.90
2023-08-02T10:37:49.279Z,17.92
2023-08-02T10:40:16.008Z,17.90
2023-08-02T10:42:42.743Z,17.95
2023-08-02T10:45:09.482Z,17.95
2023-08-02T10:47:37.126Z,17.96
2023-08-02T10:50:04.035Z,17.96
2023-08-02T10:52:30.754Z,17.98
2023-08-02T10:54:57.470Z,17.98
2023-08-02T10:57:24.198Z,17.98
2023-08-02T10:59:50.916Z,18.00
2023-08-02T11:02:17.666Z,17.99
2023-08-02T11:04:44.612Z,18.00
2023-08-02T11:07:11.347Z,18.03
2023-08-02T11:09:38.082Z,18.06
2023-08-02T11:12:04.815Z,18.02
2023-08-02T11:14:31.697Z,18.06
2023-08-02T11:16:58.632Z,18.06
2023-08-02T11:19:26.400Z,18.05
2023-08-02T11:21:53.216Z,18.09
2023-08-02T11:24:19.961Z,18.08
2023-08-02T11:29:16.251Z,18.10
2023-08-02T11:31:47.222Z,18.12
2023-08-02T11:34:15.327Z,18.10
2023-08-02T11:36:42.192Z,18.12
2023-08-02T11:39:09.285Z,18.47
2023-08-02T11:41:36.006Z,18.71
2023-08-02T11:44:02.734Z,19.22
2023-08-02T11:46:29.461Z,19.31
2023-08-02T11:48:56.206Z,19.32
2023-08-02T11:51:23.151Z,19.19
2023-08-02T11:53:49.918Z,19.36
2023-08-02T11:56:16.626Z,19.40
2023-08-02T11:58:43.345Z,19.53
2023-08-02T12:01:10.081Z,19.52
2023-08-02T12:03:36.833Z,19.65
2023-08-02T12:06:03.644Z,19.53
2023-08-02T12:08:30.759Z,19.40
2023-08-02T12:10:57.489Z,19.31
2023-08-02T12:13:24.208Z,19.22
2023-08-02T12:15:50.903Z,19.31
2023-08-02T12:18:17.636Z,19.25
2023-08-02T12:20:44.630Z,19.21
2023-08-02T12:23:11.348Z,19.22
2023-08-02T12:25:38.034Z,19.21
2023-08-02T12:28:04.747Z,19.28
2023-08-02T12:30:31.446Z,19.36
2023-08-02T12:32:58.191Z,19.46
2023-08-02T12:35:24.928Z,19.36
2023-08-02T12:37:51.657Z,19.33
2023-08-02T12:40:18.364Z,19.31
2023-08-02T12:42:57.078Z,19.31
2023-08-02T12:45:29.305Z,19.48
2023-08-02T12:47:56.182Z,19.42
2023-08-02T12:50:25.068Z,19.43
2023-08-02T12:52:52.876Z,19.58
2023-08-02T12:55:19.622Z,19.59
2023-08-02T12:57:46.556Z,19.60
2023-08-02T13:00:13.266Z,19.60
2023-08-02T13:02:40.034Z,19.70
2023-08-02T13:05:07.158Z,19.70
2023-08-02T13:07:43.834Z,19.66
2023-08-02T13:10:10.962Z,19.67
2023-08-02T13:12:38.512Z,19.70
2023-08-02T13:15:05.412Z,19.80
2023-08-02T13:17:32.340Z,19.86
2023-08-02T13:19:59.161Z,19.76
2023-08-02T13:22:25.896Z,19.67
2023-08-02T13:24:52.583Z,19.65
2023-08-02T13:27:19.293Z,19.66
2023-08-02T13:29:46.024Z,19.63
2023-08-02T13:32:12.913Z,19.58
2023-08-02T13:34:39.643Z,19.55
2023-08-02T13:37:06.504Z,19.52
2023-08-02T13:39:33.220Z,19.49
2023-08-02T13:41:59.942Z,19.43
2023-08-02T13:44:26.664Z,19.45
2023-08-02T13:46:53.388Z,19.42
2023-08-02T13:49:20.120Z,19.39
2023-08-02T13:51:46.851Z,19.40
2023-08-02T13:54:13.585Z,19.40
2023-08-02T13:56:40.752Z,19.43
2023-08-02T13:59:07.775Z,19.43
2023-08-02T14:01:34.543Z,19.45
2023-08-02T14:04:01.292Z,19.48
2023-08-02T14:06:28.170Z,19.46
2023-08-02T14:08:55.013Z,19.46
2023-08-02T14:11:21.741Z,19.49
2023-08-02T14:13:48.414Z,19.40
2023-08-02T14:16:15.164Z,19.38
2023-08-02T14:18:42.132Z,19.36
2023-08-02T14:21:08.803Z,19.33
2023-08-02T14:23:35.488Z,19.32
2023-08-02T14:26:02.544Z,19.32
2023-08-02T14:28:29.281Z,19.31
2023-08-02T14:30:56.060Z,19.29
2023-08-02T14:33:22.828Z,19.28
2023-08-02T14:35:49.728Z,19.26
2023-08-02T14:38:16.401Z,19.23
2023-08-02T14:40:43.154Z,19.25
2023-08-02T14:43:09.881Z,19.25
2023-08-02T14:45:36.614Z,19.21
2023-08-02T14:48:03.375Z,19.21
2023-08-02T14:50:30.151Z,19.22
2023-08-02T14:52:56.893Z,19.22
2023-08-02T14:55:23.630Z,19.19
2023-08-02T14:57:50.328Z,19.22
2023-08-02T15:00:17.218Z,19.19
2023-08-02T15:02:44.058Z,19.19
2023-08-02T15:05:10.782Z,19.16
2023-08-02T15:07:37.493Z,19.19
2023-08-02T15:10:04.300Z,19.18
2023-08-02T15:12:31.229Z,19.21
2023-08-02T15:14:57.925Z,19.22
2023-08-02T15:17:24.663Z,19.21
2023-08-02T15:19:51.360Z,19.18
2023-08-02T15:22:18.097Z,19.19
2023-08-02T15:24:44.777Z,19.16
2023-08-02T15:27:11.450Z,19.16
2023-08-02T15:29:38.159Z,19.18
2023-08-02T15:32:05.068Z,19.16
2023-08-02T15:34:31.771Z,19.21
2023-08-02T15:36:58.493Z,19.22
2023-08-02T15:39:25.228Z,19.35
2023-08-02T15:41:51.948Z,19.42
2023-08-02T15:44:18.675Z,19.43
2023-08-02T15:46:45.695Z,19.42
2023-08-02T15:49:12.729Z,19.39
2023-08-02T15:51:39.425Z,19.45
2023-08-02T15:54:07.114Z,19.58
2023-08-02T15:56:33.878Z,19.63
2023-08-02T15:59:00.632Z,19.58
2023-08-02T16:01:27.623Z,19.60
2023-08-02T16:03:54.349Z,19.60
2023-08-02T16:06:21.354Z,19.63
2023-08-02T16:08:48.141Z,19.62
2023-08-02T16:11:14.864Z,19.59
2023-08-02T16:13:41.590Z,19.60
2023-08-02T16:16:08.296Z,19.74
2023-08-02T16:18:35.118Z,19.76
2023-08-02T16:21:01.861Z,19.69
2023-08-02T16:23:28.649Z,19.77
2023-08-02T16:25:55.378Z,19.76
2023-08-02T16:28:22.112Z,19.67
2023-08-02T16:30:48.910Z,19.65
2023-08-02T16:33:15.882Z,19.67
2023-08-02T16:35:45.069Z,19.67
2023-08-02T16:38:11.958Z,19.63
2023-08-02T16:40:38.894Z,19.67
2023-08-02T16:43:05.819Z,19.65
2023-08-02T16:45:32.543Z,19.60
2023-08-02T16:47:59.261Z,19.63
2023-08-02T16:50:26.081Z,19.62
2023-08-02T16:52:52.974Z,19.59
2023-08-02T16:55:19.891Z,19.56
2023-08-02T16:57:46.611Z,19.53
2023-08-02T17:00:13.546Z,19.55
2023-08-02T17:02:40.538Z,19.52
2023-08-02T17:05:07.529Z,19.50
2023-08-02T17:07:34.721Z,19.52
2023-08-02T17:10:01.637Z,19.50
2023-08-02T17:12:28.604Z,19.52
2023-08-02T17:14:55.560Z,19.53
2023-08-02T17:17:22.300Z,19.50
2023-08-02T17:19:49.131Z,19.46
2023-08-02T17:22:15.851Z,19.49
2023-08-02T17:24:42.660Z,19.48
2023-08-02T17:27:09.624Z,19.49
2023-08-02T17:29:36.388Z,19.49
2023-08-02T17:32:03.144Z,19.49
2023-08-02T17:34:29.920Z,19.48
2023-08-02T17:36:56.692Z,19.48
2023-08-02T17:39:23.542Z,19.43
2023-08-02T17:41:50.432Z,19.46
2023-08-02T17:44:17.158Z,19.45
2023-08-02T17:46:43.947Z,19.45
2023-08-02T17:49:10.798Z,19.42
2023-08-02T17:51:37.518Z,19.46
2023-08-02T17:54:04.305Z,19.45
2023-08-02T17:56:31.133Z,19.43
2023-08-02T17:58:57.850Z,19.43
2023-08-02T18:01:24.608Z,19.45
2023-08-02T18:03:51.377Z,19.45
2023-08-02T18:06:18.094Z,19.43
2023-08-02T18:08:45.278Z,19.45
2023-08-02T18:11:12.032Z,19.45
2023-08-02T18:13:39.279Z,19.43
2023-08-02T18:16:06.146Z,19.43
2023-08-02T18:18:32.928Z,19.43
2023-08-02T18:20:59.703Z,19.42
2023-08-02T18:23:26.644Z,19.42
2023-08-02T18:25:53.416Z,19.43
2023-08-02T18:28:20.355Z,19.40
2023-08-02T18:30:47.378Z,19.40
2023-08-02T18:33:14.204Z,19.40
2023-08-02T18:35:41.108Z,19.42
2023-08-02T18:38:08.047Z,19.42
2023-08-02T18:40:34.729Z,19.39
2023-08-02T18:43:01.453Z,19.39
2023-08-02T18:45:28.201Z,19.38
2023-08-02T18:47:54.971Z,19.39
2023-08-02T18:50:21.718Z,19.39
2023-08-02T18:52:48.453Z,19.38
2023-08-02T18:55:15.167Z,19.38
2023-08-02T18:57:41.896Z,19.38
2023-08-02T19:00:08.607Z,19.36
2023-08-02T19:02:35.373Z,19.35
2023-08-02T19:05:02.153Z,19.38
2023-08-02T19:07:28.878Z,19.33
2023-08-02T19:09:55.669Z,19.33
2023-08-02T19:12:22.358Z,19.32
2023-08-02T19:14:49.065Z,19.31
2023-08-02T19:17:15.751Z,19.31
2023-08-02T19:19:42.481Z,19.29
2023-08-02T19:22:09.215Z,19.31
2023-08-02T19:24:35.954Z,19.32
2023-08-02T19:27:02.693Z,19.28
2023-08-02T19:29:29.419Z,19.26
2023-08-02T19:31:56.225Z,19.26
2023-08-02T19:34:22.973Z,19.23
2023-08-02T19:36:49.677Z,19.25
2023-08-02T19:39:16.620Z,19.25
2023-08-02T19:41:43.554Z,19.23
2023-08-02T19:44:10.416Z,19.21
2023-08-02T19:46:37.196Z,19.21
2023-08-02T19:49:03.920Z,19.21
2023-08-02T19:51:30.645Z,19.22
2023-08-02T19:53:57.377Z,19.22
2023-08-02T19:56:24.140Z,19.23
2023-08-02T19:58:51.094Z,19.19
2023-08-02T20:01:17.891Z,19.19
2023-08-02T20:03:44.693Z,19.21
2023-08-02T20:06:11.885Z,19.22
2023-08-02T20:08:38.723Z,19.22
2023-08-02T20:11:05.445Z,19.21
2023-08-02T20:13:33.068Z,19.22
2023-08-02T20:15:59.877Z,19.19
2023-08-02T20:18:26.598Z,19.16
2023-08-02T20:20:53.661Z,19.18
2023-08-02T20:23:21.506Z,19.21
2023-08-02T20:25:48.185Z,19.16
2023-08-02T20:28:14.912Z,19.18
2023-08-02T20:30:41.676Z,19.16
2023-08-02T20:33:08.550Z,19.16
2023-08-02T20:35:35.541Z,19.16
2023-08-02T20:38:02.262Z,19.18
2023-08-02T20:40:28.993Z,19.15
2023-08-02T20:42:55.713Z,19.16
2023-08-02T20:45:22.399Z,19.16
2023-08-02T20:47:49.177Z,19.18
2023-08-02T20:50:16.450Z,19.15
2023-08-02T20:52:43.170Z,19.15
2023-08-02T20:55:09.886Z,19.12
2023-08-02T20:57:36.771Z,19.15
2023-08-02T21:00:03.486Z,19.14
2023-08-02T21:02:30.268Z,19.15
2023-08-02T21:04:57.293Z,19.15
2023-08-02T21:07:24.019Z,19.12
2023-08-02T21:09:50.705Z,19.12
2023-08-02T21:12:17.427Z,19.11
2023-08-02T21:14:44.143Z,19.11
2023-08-02T21:17:10.881Z,19.12
2023-08-02T21:19:37.813Z,19.12
2023-08-02T21:22:04.509Z,19.11
2023-08-02T21:24:31.198Z,19.09
2023-08-02T21:26:57.929Z,19.07
2023-08-02T21:29:24.607Z,19.08
2023-08-02T21:31:53.053Z,19.07
2023-08-02T21:34:20.154Z,19.07
2023-08-02T21:36:46.858Z,19.04
2023-08-02T21:39:13.597Z,19.04
2023-08-02T21:41:41.376Z,19.07
2023-08-02T21:44:08.483Z,19.05
2023-08-02T21:46:35.275Z,19.04
2023-08-02T21:49:02.029Z,19.04
2023-08-02T21:51:28.975Z,19.05
2023-08-02T21:53:55.711Z,18.98
2023-08-02T21:56:22.643Z,19.02
2023-08-02T21:58:49.362Z,19.01
2023-08-02T22:01:16.047Z,18.98
2023-08-02T22:03:43.079Z,19.02
2023-08-02T22:06:09.845Z,18.99
2023-08-02T22:08:36.612Z,19.01
2023-08-02T22:11:03.362Z,18.99
2023-08-02T22:13:30.057Z,18.98
2023-08-02T22:15:56.793Z,18.98
2023-08-02T22:18:23.490Z,18.95
2023-08-02T22:20:50.433Z,18.98
2023-08-02T22:23:17.117Z,18.94
2023-08-02T22:25:43.857Z,18.95
2023-08-02T22:28:10.577Z,18.92
2023-08-02T22:30:37.303Z,18.94
2023-08-02T22:33:04.008Z,18.98
2023-08-02T22:35:30.730Z,18.92
2023-08-02T22:37:57.474Z,18.90
2023-08-02T22:40:24.201Z,18.95
2023-08-02T22:42:51.095Z,18.92
2023-08-02T22:45:17.816Z,18.94
2023-08-02T22:47:45.434Z,18.91
2023-08-02T22:52:43.018Z,18.91
2023-08-02T22:55:09.781Z,18.90
2023-08-02T22:57:36.477Z,18.90
2023-08-02T23:00:03.199Z,18.88
2023-08-02T23:02:30.100Z,18.90
2023-08-02T23:04:59.665Z,18.88
2023-08-02T23:07:26.354Z,18.87
2023-08-02T23:09:53.088Z,18.87
2023-08-02T23:12:19.776Z,18.87
2023-08-02T23:14:46.714Z,18.87
2023-08-02T23:17:13.594Z,18.88
2023-08-02T23:19:40.358Z,18.87
2023-08-02T23:22:07.095Z,18.85
2023-08-02T23:24:34.116Z,18.85
2023-08-02T23:27:00.828Z,18.85
2023-08-02T23:29:27.739Z,18.84
2023-08-02T23:31:54.433Z,18.85
2023-08-02T23:34:21.166Z,18.83
2023-08-02T23:36:47.878Z,18.84
2023-08-02T23:39:14.566Z,18.83
2023-08-02T23:41:41.319Z,18.85
2023-08-02T23:44:08.173Z,18.83
2023-08-02T23:46:34.925Z,18.81
2023-08-02T23:49:01.680Z,18.81
2023-08-02T23:51:28.369Z,18.84
2023-08-02T23:53:55.300Z,18.81
2023-08-02T23:56:21.994Z,18.80
2023-08-02T23:58:48.709Z,18.81
